Observations for EAST MIDLANDS, United Kingdom (EGNX)

EGNX 170050Z 00000KT CAVOK 18/13 Q1016  
EGNX 170020Z 00000KT CAVOK 18/12 Q1016  
EGNX 162350Z VRB01KT CAVOK 18/13 Q1017  
EGNX 162320Z 31004KT CAVOK 18/13 Q1017  
EGNX 162250Z 29005KT CAVOK 19/13 Q1017  
EGNX 162150Z 31004KT CAVOK 19/13 Q1017  
EGNX 162120Z 31004KT CAVOK 19/13 Q1017  
EGNX 162050Z 28004KT CAVOK 20/13 Q1017  
EGNX 162020Z 30003KT CAVOK 20/12 Q1017  
EGNX 161950Z 28005KT 9999 FEW048 20/12 Q1017
EGNX 161920Z 27007KT 9999 FEW048 21/12 Q1017
EGNX 161850Z 27007KT 9999 FEW047 20/13 Q1017
EGNX 161820Z 26006KT 9999 FEW046 21/13 Q1017
EGNX 161750Z 24006KT 9999 FEW045 22/12 Q1017
EGNX 161720Z 24007KT 9999 FEW045 22/12 Q1017
EGNX 161650Z 20004KT 160V240 CAVOK 23/13 Q1017  
EGNX 161620Z 18006KT 150V220 CAVOK 24/12 Q1017  
EGNX 161550Z VRB04KT CAVOK 24/11 Q1017  
EGNX 161520Z 25006KT CAVOK 23/12 Q1017  
EGNX 161450Z 25005KT 200V310 9999 FEW044 23/13 Q1018
EGNX 161420Z 26004KT 230V320 9999 SCT042 23/13 Q1018
EGNX 161350Z 27008KT 9999 SCT047 22/14 Q1018
EGNX 161320Z 23005KT 170V290 9999 SCT040 22/13 Q1018
EGNX 161250Z 26007KT 220V290 9999 SCT036 22/13 Q1018
EGNX 161220Z 27007KT 250V330 9999 FEW042 23/13 Q1018
EGNX 161150Z 28008KT 250V330 9999 FEW040 24/12 Q1018
EGNX 161120Z 27006KT 220V300 9999 FEW038 22/13 Q1019
EGNX 161050Z VRB04KT 9999 FEW032 22/13 Q1019
EGNX 161020Z 30005KT 240V360 9999 FEW032 22/13 Q1019
EGNX 160920Z VRB03KT 9999 FEW045 21/13 Q1019
EGNX 160850Z 28006KT 250V320 CAVOK 20/13 Q1019  
EGNX 160820Z 28004KT 230V310 CAVOK 19/14 Q1019  
EGNX 160750Z 25005KT 220V280 CAVOK 18/13 Q1019  
EGNX 160720Z 24005KT CAVOK 17/12 Q1020  
EGNX 160650Z VRB02KT CAVOK 16/12 Q1020  
EGNX 160620Z 00000KT CAVOK 15/12 Q1020  
EGNX 160520Z 22006KT CAVOK 14/11 Q1020  
EGNX 160450Z 22006KT CAVOK 14/11 Q1020  
EGNX 160420Z 23008KT CAVOK 14/11 Q1019  
EGNX 160350Z 21005KT CAVOK 14/11 Q1019  
EGNX 160320Z 20005KT CAVOK 14/11 Q1019  
EGNX 160250Z 21005KT CAVOK 14/11 Q1019  
EGNX 160220Z 22006KT CAVOK 14/11 Q1020  
EGNX 160150Z 24005KT CAVOK 14/11 Q1020  
EGNX 160120Z 22006KT 200V260 CAVOK 14/11 Q1020  
EGNX 160050Z 22007KT CAVOK 15/12 Q1020  
EGNX 160020Z 21003KT CAVOK 15/12 Q1021